Latest Weather Observations for Kyabram

IDV60801

Issued at 3:02 pm EST Tuesday 30 June 2015 (issued every 30 minutes, with the page automatically refreshed every 10 minutes)

About weather observations | Map of weather stations | Latest weather observations for VIC | Other Formats
Station Details ID: 080091 Name: KYABRAM Lat: -36.34 Lon: 145.06 Height: 105.0 m
Data from the previous 72 hours. | See also: Recent months at Kyabram
Date/Time
EST
Temp
°C
App
Temp
°C
Dew
Point
Rel
Hum
%
Delta-T
°C
Wind Press
QNH
hPa
Press
MSL
hPa
Rain
since 9 am
mm
Dir
 
Spd
km/h
Gust
km/h
Spd
kts
Gust
kts
30/03:00pm 10.3 9.7 7.4 82 1.4 CALM 0 0 0 0 - - 0.0
30/02:30pm 10.0 9.6 8.3 89 0.8 CALM 0 0 0 0 - - 0.0
30/02:00pm 9.1 8.9 9.0 99 0.0 CALM 0 0 0 0 - - 0.0
30/01:30pm 7.9 - 8.0 - - CALM 0 0 0 0 - - 0.0
30/01:00pm 6.5 - 6.6 - - CALM 0 0 0 0 - - 0.0
30/12:30pm 6.8 - 6.9 - - CALM 0 0 0 0 - - 0.0
30/12:00pm 5.8 - 5.9 - - CALM 0 0 0 0 - - 0.0
30/11:30am 4.8 - 4.9 - - CALM 0 0 0 0 - - 0.0
30/11:00am 4.6 - 4.7 - - CALM 0 0 0 0 - - 0.0
30/10:30am 3.5 2.1 3.5 100 0.0 CALM 0 0 0 0 - - 0.0
30/10:00am 2.8 1.3 2.8 100 0.0 CALM 0 0 0 0 - - 0.0
30/09:30am 1.2 -0.6 1.2 100 0.0 CALM 0 0 0 0 - - 0.0
30/09:00am 0.5 -1.4 0.5 100 0.0 CALM 0 0 0 0 - - 0.2
30/08:30am 0.0 -2.0 0.0 100 0.0 CALM 0 0 0 0 - - 0.0
30/08:00am 0.0 -2.0 0.0 100 0.0 CALM 0 0 0 0 - - 0.0
30/07:30am -0.2 -2.2 -0.2 100 0.0 CALM 0 0 0 0 - - 0.0
30/07:00am -0.4 -2.4 -0.4 100 0.0 CALM 0 0 0 0 - - 0.0
30/06:30am -0.3 -2.3 -0.3 100 0.0 CALM 0 0 0 0 - - 0.0
30/06:00am -0.4 -2.4 -0.4 100 0.0 CALM 0 0 0 0 - - 0.0
30/05:30am -0.4 -2.4 -0.4 100 0.0 CALM 0 0 0 0 - - 0.0
30/05:00am -0.3 -2.3 -0.3 100 0.0 CALM 0 0 0 0 - - 0.0
30/04:30am 0.0 -2.0 0.0 100 0.0 CALM 0 0 0 0 - - 0.0
30/04:00am 0.2 -1.8 0.2 100 0.0 CALM 0 0 0 0 - - 0.0
30/03:30am 0.4 -1.5 0.4 100 0.0 CALM 0 0 0 0 - - 0.0
30/03:00am 0.8 -1.1 0.8 100 0.0 CALM 0 0 0 0 - - 0.0
30/02:30am 0.4 -1.5 0.4 100 0.0 CALM 0 0 0 0 - - 0.0
30/02:00am 1.1 -0.7 1.1 100 0.0 CALM 0 0 0 0 - - 0.0
30/01:30am 1.1 -0.7 1.1 100 0.0 CALM 0 0 0 0 - - 0.0
30/01:00am 1.8 0.1 1.8 100 0.0 CALM 0 0 0 0 - - 0.0
30/12:30am 1.7 0.0 1.7 100 0.0 CALM 0 0 0 0 - - 0.0
30/12:00am 1.2 -0.6 1.2 100 0.0 CALM 0 0 0 0 - - 0.0
 
Date/Time
EST
Temp
°C
App
Temp
°C
Dew
Point
Rel
Hum
%
Delta-T
°C
Wind Press
QNH
hPa
Press
MSL
hPa
Rain
since 9 am
mm
Dir
 
Spd
km/h
Gust
km/h
Spd
kts
Gust
kts
29/11:30pm 1.0 -0.8 1.0 100 0.0 CALM 0 0 0 0 - - 0.0
29/11:00pm 1.3 -0.5 1.3 100 0.0 CALM 0 0 0 0 - - 0.0
29/10:30pm 1.2 -0.6 1.2 100 0.0 CALM 0 0 0 0 - - 0.0
29/10:00pm 1.2 -0.6 1.2 100 0.0 CALM 0 0 0 0 - - 0.0
29/09:30pm 1.1 -0.7 1.1 100 0.0 CALM 0 0 0 0 - - 0.0
29/09:00pm 2.3 0.7 2.3 100 0.0 CALM 0 0 0 0 - - 0.0
29/08:30pm 3.3 1.9 3.3 100 0.0 CALM 0 0 0 0 - - 0.0
29/08:00pm 3.6 2.2 3.6 100 0.0 CALM 0 0 0 0 - - 0.0
29/07:30pm 4.1 2.8 4.1 100 0.0 CALM 0 0 0 0 - - 0.0
29/07:00pm 4.7 3.5 4.7 100 0.0 CALM 0 0 0 0 - - 0.0
29/06:30pm 5.4 4.4 5.4 100 0.0 CALM 0 0 0 0 - - 0.0
29/06:00pm 6.2 5.3 6.1 99 0.0 CALM 0 0 0 0 - - 0.0
29/05:30pm 7.8 7.0 6.4 91 0.6 CALM 0 0 0 0 - - 0.0
29/05:00pm 9.5 8.8 6.8 83 1.3 CALM 0 0 0 0 - - 0.0
29/04:30pm 10.5 9.6 6.1 74 2.1 CALM 0 0 0 0 - - 0.0
29/04:00pm 11.1 10.1 5.6 69 2.6 CALM 0 0 0 0 - - 0.0
29/03:30pm 12.0 11.2 6.7 70 2.5 CALM 0 0 0 0 - - 0.0
29/03:00pm 11.5 10.5 5.8 68 2.7 CALM 0 0 0 0 - - 0.0
29/02:30pm 12.4 11.7 7.1 70 2.6 CALM 0 0 0 0 - - 0.0
29/02:00pm 10.9 10.3 7.6 80 1.6 CALM 0 0 0 0 - - 0.0
29/01:30pm 10.6 9.9 7.1 79 1.7 CALM 0 0 0 0 - - 0.0
29/01:00pm 10.4 9.8 7.5 82 1.4 CALM 0 0 0 0 - - 0.0
29/12:30pm 9.2 8.6 7.6 90 0.8 CALM 0 0 0 0 - - 0.0
29/12:00pm 10.7 10.6 9.3 91 0.7 CALM 0 0 0 0 - - 0.0
29/11:30am 8.6 7.5 8.6 100 0.0 N 4 9 2 5 - - 0.0
29/11:00am 6.9 - 7.0 - - NE 6 9 3 5 - - 0.0
29/10:30am 5.2 - 5.3 - - CALM 0 0 0 0 - - 0.0
29/10:00am 4.0 1.5 4.0 100 0.0 SSE 6 7 3 4 - - 0.0
29/09:30am 3.2 0.4 3.2 100 0.0 SE 7 9 4 5 - - 0.0
29/09:00am 2.8 -0.1 2.8 100 0.0 SE 7 11 4 6 - - 0.0
29/08:30am 2.3 0.3 2.3 100 0.0 SSE 2 7 1 4 - - 0.0
29/08:00am 1.9 -1.1 1.9 100 0.0 SE 7 13 4 7 - - 0.0
29/07:30am 1.6 -1.5 1.6 100 0.0 SSE 7 11 4 6 - - 0.0
29/07:00am 1.5 -2.3 1.5 100 0.0 SE 11 17 6 9 - - 0.0
29/06:30am 1.4 -1.7 1.4 100 0.0 SSE 7 13 4 7 - - 0.0
29/06:00am 0.3 -1.6 0.3 100 0.0 CALM 0 0 0 0 - - 0.0
29/05:30am -0.2 -2.2 -0.2 100 0.0 CALM 0 0 0 0 - - 0.0
29/05:00am 0.3 -1.6 0.3 100 0.0 CALM 0 0 0 0 - - 0.0
29/04:30am 0.7 -1.2 0.7 100 0.0 CALM 0 0 0 0 - - 0.0
29/04:00am 0.8 -1.1 0.8 100 0.0 CALM 0 0 0 0 - - 0.0
29/03:30am 1.0 -0.8 1.0 100 0.0 CALM 0 0 0 0 - - 0.0
29/03:00am 1.7 0.0 1.7 100 0.0 CALM 0 0 0 0 - - 0.0
29/02:30am 1.9 0.2 1.9 100 0.0 CALM 0 0 0 0 - - 0.0
29/02:00am 2.0 0.3 2.0 100 0.0 CALM 0 0 0 0 - - 0.0
29/01:30am 3.0 1.5 3.0 100 0.0 CALM 0 0 0 0 - - 0.0
29/01:00am 2.7 1.1 2.7 100 0.0 CALM 0 0 0 0 - - 0.0
29/12:30am 2.3 0.7 2.3 100 0.0 CALM 0 0 0 0 - - 0.0
29/12:00am 3.9 2.6 3.9 100 0.0 CALM 0 0 0 0 - - 0.0
 
Date/Time
EST
Temp
°C
App
Temp
°C
Dew
Point
Rel
Hum
%
Delta-T
°C
Wind Press
QNH
hPa
Press
MSL
hPa
Rain
since 9 am
mm
Dir
 
Spd
km/h
Gust
km/h
Spd
kts
Gust
kts
28/11:30pm 3.6 2.2 3.6 100 0.0 CALM 0 0 0 0 - - 0.0
28/11:00pm 4.2 2.9 4.2 100 0.0 CALM 0 0 0 0 - - 0.0
28/10:30pm 4.5 3.3 4.5 100 0.0 CALM 0 0 0 0 - - 0.0
28/10:00pm 5.0 3.9 5.0 100 0.0 CALM 0 0 0 0 - - 0.0
28/09:30pm 5.6 4.6 5.6 100 0.0 CALM 0 0 0 0 - - 0.0
28/09:00pm 6.0 5.1 5.9 99 0.0 CALM 0 0 0 0 - - 0.0
28/08:30pm 7.1 6.4 7.0 99 0.0 CALM 0 0 0 0 - - 0.0
28/08:00pm 8.1 7.6 7.7 97 0.2 CALM 0 0 0 0 - - 0.0
28/07:30pm 9.6 9.1 7.9 89 0.8 CALM 0 0 0 0 - - 0.0
28/07:00pm 9.6 9.2 8.2 91 0.7 CALM 0 0 0 0 - - 0.0
28/06:30pm 10.0 9.4 7.6 85 1.2 CALM 0 0 0 0 - - 0.0
28/06:00pm 11.2 10.6 7.5 78 1.8 CALM 0 0 0 0 - - 0.0
28/05:30pm 12.1 11.6 7.8 75 2.1 CALM 0 0 0 0 - - 0.0
28/05:00pm 11.8 11.2 7.5 75 2.1 CALM 0 0 0 0 - - 0.0
28/04:30pm 12.9 12.4 8.0 72 2.4 CALM 0 0 0 0 - - 0.0
28/04:00pm 12.8 12.2 7.5 70 2.6 CALM 0 0 0 0 - - 0.0
28/03:30pm 14.0 13.5 7.8 66 3.1 CALM 0 0 0 0 - - 0.0
28/03:00pm 13.0 11.7 7.5 69 2.7 SSW 4 11 2 6 - - 0.0
28/02:30pm 14.6 14.0 7.2 61 3.6 CALM 0 0 0 0 - - 0.0
28/02:00pm 13.7 13.2 7.9 68 2.9 CALM 0 0 0 0 - - 0.0
28/01:30pm 13.7 11.5 7.9 68 2.9 SW 9 15 5 8 - - 0.0
28/01:00pm 14.5 12.0 8.0 65 3.3 SSW 11 19 6 10 - - 0.0
28/12:30pm 13.7 11.1 7.9 68 2.9 SW 11 19 6 10 - - 0.0
28/12:00pm 13.1 10.4 7.5 69 2.7 SW 11 19 6 10 - - 0.0
28/11:30am 12.1 9.4 7.4 73 2.3 WSW 11 15 6 8 - - 0.0
28/11:00am 11.7 9.3 6.8 72 2.3 W 9 15 5 8 - - 0.0
28/10:30am 11.0 8.6 7.1 77 1.9 WSW 9 15 5 8 - - 0.0
28/10:00am 9.8 6.9 6.7 81 1.5 WSW 11 17 6 9 - - 0.0
28/09:30am 8.9 7.0 7.5 91 0.7 WSW 7 11 4 6 - - 0.0
28/09:00am 7.1 6.4 7.1 100 0.0 CALM 0 0 0 0 - - 0.0
28/08:30am 5.4 4.4 5.4 100 0.0 CALM 0 0 0 0 - - 0.0
28/08:00am 4.8 3.6 4.8 100 0.0 CALM 0 0 0 0 - - 0.0
28/07:30am 4.9 3.8 4.9 100 0.0 CALM 0 0 0 0 - - 0.0
28/07:00am 5.2 4.1 5.2 100 0.0 CALM 0 0 0 0 - - 0.0
28/06:30am 5.3 4.2 5.3 100 0.0 CALM 0 0 0 0 - - 0.0
28/06:00am 5.7 4.7 5.7 100 0.0 CALM 0 0 0 0 - - 0.0
28/05:30am 5.2 4.1 5.2 100 0.0 CALM 0 0 0 0 - - 0.0
28/05:00am 4.4 3.2 4.4 100 0.0 CALM 0 0 0 0 - - 0.0
28/04:30am 4.3 3.0 4.3 100 0.0 CALM 0 0 0 0 - - 0.0
28/04:00am 4.7 3.5 4.7 100 0.0 CALM 0 0 0 0 - - 0.0
28/03:30am 5.7 4.7 5.6 99 0.0 CALM 0 0 0 0 - - 0.0
28/03:00am 6.7 5.9 6.6 99 0.0 CALM 0 0 0 0 - - 0.0
28/02:30am 7.0 6.3 6.9 99 0.0 CALM 0 0 0 0 - - 0.0
28/02:00am 7.2 6.5 6.9 98 0.1 CALM 0 0 0 0 - - 0.0
28/01:30am 7.5 6.9 7.4 99 0.0 CALM 0 0 0 0 - - 0.0
28/01:00am 7.6 7.0 7.2 97 0.2 CALM 0 0 0 0 - - 0.0
28/12:30am 7.6 6.8 6.4 92 0.6 CALM 0 0 0 0 - - 0.0
28/12:00am 7.8 6.9 5.9 88 0.9 CALM 0 0 0 0 - - 0.0
 
Date/Time
EST
Temp
°C
App
Temp
°C
Dew
Point
Rel
Hum
%
Delta-T
°C
Wind Press
QNH
hPa
Press
MSL
hPa
Rain
since 9 am
mm
Dir
 
Spd
km/h
Gust
km/h
Spd
kts
Gust
kts
27/11:30pm 8.1 7.2 5.9 86 1.0 CALM 0 0 0 0 - - 0.0
27/11:00pm 8.0 6.3 6.1 88 0.9 E 4 9 2 5 - - 0.0
27/10:30pm 7.9 7.0 5.9 87 0.9 CALM 0 0 0 0 - - 0.0
27/10:00pm 7.9 6.8 5.2 83 1.2 CALM 0 0 0 0 - - 0.0
27/09:30pm 8.4 7.5 5.9 84 1.1 CALM 0 0 0 0 - - 0.0
27/09:00pm 8.4 7.5 5.9 84 1.1 CALM 0 0 0 0 - - 0.0
27/08:30pm 8.8 7.7 5.0 77 1.7 CALM 0 0 0 0 - - 0.0
27/08:00pm 9.1 6.8 4.9 75 1.9 SW 6 7 3 4 - - 0.0
27/07:30pm 9.0 7.2 5.6 79 1.6 SW 4 11 2 6 - - 0.0
27/07:00pm 8.9 7.9 5.6 80 1.5 CALM 0 0 0 0 - - 0.0
27/06:30pm 9.1 8.1 5.8 80 1.5 CALM 0 0 0 0 - - 0.0
27/06:00pm 9.0 8.2 6.4 84 1.2 CALM 0 0 0 0 - - 0.0
27/05:30pm 9.4 8.6 6.5 82 1.4 CALM 0 0 0 0 - - 0.0
27/05:00pm 9.7 8.8 6.1 78 1.7 CALM 0 0 0 0 - - 0.0
27/04:30pm 10.1 9.2 5.9 75 1.9 CALM 0 0 0 0 - - 0.0
27/04:00pm 10.3 9.2 5.1 70 2.4 CALM 0 0 0 0 - - 0.0
27/03:30pm 10.4 9.3 5.0 69 2.5 CALM 0 0 0 0 - - 0.0

Other Formats:

Comma delimited format used in spreadsheet applications
http://www.bom.gov.au/fwo/IDV60801/IDV60801.95833.axf

JavaScript Object Notation format (JSON) in row-major order
http://www.bom.gov.au/fwo/IDV60801/IDV60801.95833.json